sensor_id;sensor_type;location;lat;lon;timestamp;temperature;humidity
11214;DHT22;5664;48.606;13.456;2023-10-19T00:01:10;19.80;78.10
11214;DHT22;5664;48.606;13.456;2023-10-19T00:03:36;19.80;78.10
11214;DHT22;5664;48.606;13.456;2023-10-19T00:06:02;19.80;79.90
11214;DHT22;5664;48.606;13.456;2023-10-19T00:08:27;19.80;81.50
11214;DHT22;5664;48.606;13.456;2023-10-19T00:11:12;19.70;82.60
11214;DHT22;5664;48.606;13.456;2023-10-19T00:13:47;19.80;84.30
11214;DHT22;5664;48.606;13.456;2023-10-19T00:16:15;19.70;86.50
11214;DHT22;5664;48.606;13.456;2023-10-19T00:18:47;19.70;86.60
11214;DHT22;5664;48.606;13.456;2023-10-19T00:21:13;19.70;85.90
11214;DHT22;5664;48.606;13.456;2023-10-19T00:23:46;19.70;91.40
11214;DHT22;5664;48.606;13.456;2023-10-19T00:26:17;19.70;91.70
11214;DHT22;5664;48.606;13.456;2023-10-19T00:28:45;19.50;87.10
11214;DHT22;5664;48.606;13.456;2023-10-19T00:31:12;19.70;84.50
11214;DHT22;5664;48.606;13.456;2023-10-19T00:33:38;19.60;77.80
11214;DHT22;5664;48.606;13.456;2023-10-19T00:36:06;19.60;74.40
11214;DHT22;5664;48.606;13.456;2023-10-19T00:38:38;19.60;73.00
11214;DHT22;5664;48.606;13.456;2023-10-19T00:41:05;19.60;71.80
11214;DHT22;5664;48.606;13.456;2023-10-19T00:43:40;19.60;71.20
11214;DHT22;5664;48.606;13.456;2023-10-19T00:46:10;19.50;71.20
11214;DHT22;5664;48.606;13.456;2023-10-19T00:51:16;19.50;69.70
11214;DHT22;5664;48.606;13.456;2023-10-19T00:53:58;19.50;69.90
11214;DHT22;5664;48.606;13.456;2023-10-19T00:56:24;19.50;70.00
11214;DHT22;5664;48.606;13.456;2023-10-19T00:58:57;19.50;70.20
11214;DHT22;5664;48.606;13.456;2023-10-19T01:01:32;19.50;70.40
11214;DHT22;5664;48.606;13.456;2023-10-19T01:04:01;19.50;70.00
11214;DHT22;5664;48.606;13.456;2023-10-19T01:06:29;19.50;71.10
11214;DHT22;5664;48.606;13.456;2023-10-19T01:08:57;19.40;71.30
11214;DHT22;5664;48.606;13.456;2023-10-19T01:11:23;19.40;72.00
11214;DHT22;5664;48.606;13.456;2023-10-19T01:13:53;19.40;71.60
11214;DHT22;5664;48.606;13.456;2023-10-19T01:16:19;19.40;71.20
11214;DHT22;5664;48.606;13.456;2023-10-19T01:18:48;19.40;71.00
11214;DHT22;5664;48.606;13.456;2023-10-19T01:21:13;19.50;71.00
11214;DHT22;5664;48.606;13.456;2023-10-19T01:23:39;19.40;70.80
11214;DHT22;5664;48.606;13.456;2023-10-19T01:26:08;19.30;69.80
11214;DHT22;5664;48.606;13.456;2023-10-19T01:28:37;19.30;69.70
11214;DHT22;5664;48.606;13.456;2023-10-19T01:31:06;19.30;70.60
11214;DHT22;5664;48.606;13.456;2023-10-19T01:33:32;19.30;69.80
11214;DHT22;5664;48.606;13.456;2023-10-19T01:35:59;19.30;70.00
11214;DHT22;5664;48.606;13.456;2023-10-19T01:38:40;19.30;70.10
11214;DHT22;5664;48.606;13.456;2023-10-19T01:41:06;19.30;70.40
11214;DHT22;5664;48.606;13.456;2023-10-19T01:43:45;19.30;70.40
11214;DHT22;5664;48.606;13.456;2023-10-19T01:46:12;19.30;70.40
11214;DHT22;5664;48.606;13.456;2023-10-19T01:48:44;19.20;70.30
11214;DHT22;5664;48.606;13.456;2023-10-19T01:51:10;19.20;70.40
11214;DHT22;5664;48.606;13.456;2023-10-19T01:53:36;19.20;70.50
11214;DHT22;5664;48.606;13.456;2023-10-19T01:56:04;19.20;70.30
11214;DHT22;5664;48.606;13.456;2023-10-19T01:58:31;19.20;70.40
11214;DHT22;5664;48.606;13.456;2023-10-19T02:00:59;19.20;70.30
11214;DHT22;5664;48.606;13.456;2023-10-19T02:03:26;19.20;70.80
11214;DHT22;5664;48.606;13.456;2023-10-19T02:05:57;19.20;69.70
11214;DHT22;5664;48.606;13.456;2023-10-19T02:08:24;19.20;69.70
11214;DHT22;5664;48.606;13.456;2023-10-19T02:10:51;19.20;69.80
11214;DHT22;5664;48.606;13.456;2023-10-19T02:13:17;19.10;69.70
11214;DHT22;5664;48.606;13.456;2023-10-19T02:15:44;19.10;69.80
11214;DHT22;5664;48.606;13.456;2023-10-19T02:18:09;19.20;70.00
11214;DHT22;5664;48.606;13.456;2023-10-19T02:20:36;19.10;69.80
11214;DHT22;5664;48.606;13.456;2023-10-19T02:23:05;19.10;70.00
11214;DHT22;5664;48.606;13.456;2023-10-19T02:25:32;19.10;70.00
11214;DHT22;5664;48.606;13.456;2023-10-19T02:28:02;19.10;70.10
11214;DHT22;5664;48.606;13.456;2023-10-19T02:30:28;19.10;70.90
11214;DHT22;5664;48.606;13.456;2023-10-19T02:32:53;19.10;70.70
11214;DHT22;5664;48.606;13.456;2023-10-19T02:35:19;19.10;71.10
11214;DHT22;5664;48.606;13.456;2023-10-19T02:37:45;19.10;71.30
11214;DHT22;5664;48.606;13.456;2023-10-19T02:40:10;19.10;71.20
11214;DHT22;5664;48.606;13.456;2023-10-19T02:42:47;19.10;71.60
11214;DHT22;5664;48.606;13.456;2023-10-19T02:45:16;19.10;71.50
11214;DHT22;5664;48.606;13.456;2023-10-19T02:47:43;19.00;71.40
11214;DHT22;5664;48.606;13.456;2023-10-19T02:50:08;19.00;70.70
11214;DHT22;5664;48.606;13.456;2023-10-19T02:52:36;19.00;71.40
11214;DHT22;5664;48.606;13.456;2023-10-19T02:55:01;19.00;71.40
11214;DHT22;5664;48.606;13.456;2023-10-19T02:57:29;19.10;71.80
11214;DHT22;5664;48.606;13.456;2023-10-19T02:59:56;19.00;71.50
11214;DHT22;5664;48.606;13.456;2023-10-19T03:02:23;19.00;71.60
11214;DHT22;5664;48.606;13.456;2023-10-19T03:04:52;18.90;70.90
11214;DHT22;5664;48.606;13.456;2023-10-19T03:07:18;18.90;70.90
11214;DHT22;5664;48.606;13.456;2023-10-19T03:09:43;18.90;74.00
11214;DHT22;5664;48.606;13.456;2023-10-19T03:12:19;18.90;70.90
11214;DHT22;5664;48.606;13.456;2023-10-19T03:14:45;18.90;71.00
11214;DHT22;5664;48.606;13.456;2023-10-19T03:17:14;18.90;71.20
11214;DHT22;5664;48.606;13.456;2023-10-19T03:19:39;18.90;71.30
11214;DHT22;5664;48.606;13.456;2023-10-19T03:22:05;18.90;72.00
11214;DHT22;5664;48.606;13.456;2023-10-19T03:24:31;18.80;71.80
11214;DHT22;5664;48.606;13.456;2023-10-19T03:27:20;18.80;72.10
11214;DHT22;5664;48.606;13.456;2023-10-19T03:29:49;18.80;70.60
11214;DHT22;5664;48.606;13.456;2023-10-19T03:32:20;18.80;70.90
11214;DHT22;5664;48.606;13.456;2023-10-19T03:34:55;18.80;71.20
11214;DHT22;5664;48.606;13.456;2023-10-19T03:37:22;18.80;71.30
11214;DHT22;5664;48.606;13.456;2023-10-19T03:39:48;18.80;71.00
11214;DHT22;5664;48.606;13.456;2023-10-19T03:42:13;18.80;71.30
11214;DHT22;5664;48.606;13.456;2023-10-19T03:44:39;18.70;71.30
11214;DHT22;5664;48.606;13.456;2023-10-19T03:47:14;18.80;71.50
11214;DHT22;5664;48.606;13.456;2023-10-19T03:49:43;18.70;71.40
11214;DHT22;5664;48.606;13.456;2023-10-19T03:52:09;18.70;71.50
11214;DHT22;5664;48.606;13.456;2023-10-19T03:54:34;18.70;71.60
11214;DHT22;5664;48.606;13.456;2023-10-19T03:57:04;18.80;71.50
11214;DHT22;5664;48.606;13.456;2023-10-19T03:59:31;18.50;64.60
11214;DHT22;5664;48.606;13.456;2023-10-19T04:01:59;18.30;62.70
11214;DHT22;5664;48.606;13.456;2023-10-19T04:04:25;18.00;62.80
11214;DHT22;5664;48.606;13.456;2023-10-19T04:06:52;17.70;62.10
11214;DHT22;5664;48.606;13.456;2023-10-19T04:09:23;17.50;64.10
11214;DHT22;5664;48.606;13.456;2023-10-19T04:11:55;17.30;64.40
11214;DHT22;5664;48.606;13.456;2023-10-19T04:14:21;17.10;65.50
11214;DHT22;5664;48.606;13.456;2023-10-19T04:16:46;16.80;65.40
11214;DHT22;5664;48.606;13.456;2023-10-19T04:19:14;16.70;67.80
11214;DHT22;5664;48.606;13.456;2023-10-19T04:21:41;16.70;69.10
11214;DHT22;5664;48.606;13.456;2023-10-19T04:24:09;16.80;70.50
11214;DHT22;5664;48.606;13.456;2023-10-19T04:26:36;16.80;70.70
11214;DHT22;5664;48.606;13.456;2023-10-19T04:29:04;16.90;70.90
11214;DHT22;5664;48.606;13.456;2023-10-19T04:31:37;17.00;71.10
11214;DHT22;5664;48.606;13.456;2023-10-19T04:34:06;17.20;70.90
11214;DHT22;5664;48.606;13.456;2023-10-19T04:36:34;17.20;71.00
11214;DHT22;5664;48.606;13.456;2023-10-19T04:39:01;17.20;71.30
11214;DHT22;5664;48.606;13.456;2023-10-19T04:41:26;17.30;71.20
11214;DHT22;5664;48.606;13.456;2023-10-19T04:43:54;17.30;70.70
11214;DHT22;5664;48.606;13.456;2023-10-19T04:46:23;17.40;70.90
11214;DHT22;5664;48.606;13.456;2023-10-19T04:48:49;17.40;70.80
11214;DHT22;5664;48.606;13.456;2023-10-19T04:51:15;17.50;70.70
11214;DHT22;5664;48.606;13.456;2023-10-19T04:53:40;17.50;70.80
11214;DHT22;5664;48.606;13.456;2023-10-19T04:56:07;17.60;69.90
11214;DHT22;5664;48.606;13.456;2023-10-19T04:58:37;17.50;69.90
11214;DHT22;5664;48.606;13.456;2023-10-19T05:01:03;17.50;70.30
11214;DHT22;5664;48.606;13.456;2023-10-19T05:03:29;17.50;71.20
11214;DHT22;5664;48.606;13.456;2023-10-19T05:05:55;17.50;70.50
11214;DHT22;5664;48.606;13.456;2023-10-19T05:08:22;17.60;70.70
11214;DHT22;5664;48.606;13.456;2023-10-19T05:10:51;17.60;70.90
11214;DHT22;5664;48.606;13.456;2023-10-19T05:13:16;17.60;70.90
11214;DHT22;5664;48.606;13.456;2023-10-19T05:15:42;17.60;71.30
11214;DHT22;5664;48.606;13.456;2023-10-19T05:18:08;17.40;70.50
11214;DHT22;5664;48.606;13.456;2023-10-19T05:20:33;17.60;70.40
11214;DHT22;5664;48.606;13.456;2023-10-19T05:22:59;17.60;70.40
11214;DHT22;5664;48.606;13.456;2023-10-19T05:25:25;17.60;70.60
11214;DHT22;5664;48.606;13.456;2023-10-19T05:27:51;17.60;70.60
11214;DHT22;5664;48.606;13.456;2023-10-19T05:30:16;17.60;70.90
11214;DHT22;5664;48.606;13.456;2023-10-19T05:32:42;17.60;70.90
11214;DHT22;5664;48.606;13.456;2023-10-19T05:35:07;17.60;69.60
11214;DHT22;5664;48.606;13.456;2023-10-19T05:37:33;17.60;70.10
11214;DHT22;5664;48.606;13.456;2023-10-19T05:39:59;17.60;70.20
11214;DHT22;5664;48.606;13.456;2023-10-19T05:42:24;17.60;70.80
11214;DHT22;5664;48.606;13.456;2023-10-19T05:44:50;17.60;70.80
11214;DHT22;5664;48.606;13.456;2023-10-19T05:47:17;17.60;70.60
11214;DHT22;5664;48.606;13.456;2023-10-19T05:49:42;17.60;70.50
11214;DHT22;5664;48.606;13.456;2023-10-19T05:52:08;17.60;70.60
11214;DHT22;5664;48.606;13.456;2023-10-19T05:54:33;17.60;70.20
11214;DHT22;5664;48.606;13.456;2023-10-19T05:56:59;17.60;70.50
11214;DHT22;5664;48.606;13.456;2023-10-19T05:59:24;17.60;71.00
11214;DHT22;5664;48.606;13.456;2023-10-19T06:01:52;17.60;71.10
11214;DHT22;5664;48.606;13.456;2023-10-19T06:04:17;17.60;71.20
11214;DHT22;5664;48.606;13.456;2023-10-19T06:06:43;17.90;71.60
11214;DHT22;5664;48.606;13.456;2023-10-19T06:09:08;17.60;70.20
11214;DHT22;5664;48.606;13.456;2023-10-19T06:11:34;17.50;69.00
11214;DHT22;5664;48.606;13.456;2023-10-19T06:14:05;17.50;69.40
11214;DHT22;5664;48.606;13.456;2023-10-19T06:16:35;17.50;71.30
11214;DHT22;5664;48.606;13.456;2023-10-19T06:19:00;17.50;72.80
11214;DHT22;5664;48.606;13.456;2023-10-19T06:21:25;17.60;73.50
11214;DHT22;5664;48.606;13.456;2023-10-19T06:23:51;17.60;73.60
11214;DHT22;5664;48.606;13.456;2023-10-19T06:26:18;17.70;73.60
11214;DHT22;5664;48.606;13.456;2023-10-19T06:28:44;17.80;73.60
11214;DHT22;5664;48.606;13.456;2023-10-19T06:31:09;17.80;74.20
11214;DHT22;5664;48.606;13.456;2023-10-19T06:33:35;17.80;73.10
11214;DHT22;5664;48.606;13.456;2023-10-19T06:36:01;17.90;74.00
11214;DHT22;5664;48.606;13.456;2023-10-19T06:38:29;17.90;74.30
11214;DHT22;5664;48.606;13.456;2023-10-19T06:40:54;17.90;75.40
11214;DHT22;5664;48.606;13.456;2023-10-19T06:43:19;18.00;75.40
11214;DHT22;5664;48.606;13.456;2023-10-19T06:45:52;18.00;75.40
11214;DHT22;5664;48.606;13.456;2023-10-19T06:48:18;18.10;75.60
11214;DHT22;5664;48.606;13.456;2023-10-19T06:50:43;18.10;75.10
11214;DHT22;5664;48.606;13.456;2023-10-19T06:53:10;18.20;75.60
11214;DHT22;5664;48.606;13.456;2023-10-19T06:55:35;18.20;75.90
11214;DHT22;5664;48.606;13.456;2023-10-19T06:58:01;18.20;73.00
11214;DHT22;5664;48.606;13.456;2023-10-19T07:00:27;18.10;70.00
11214;DHT22;5664;48.606;13.456;2023-10-19T07:02:56;18.00;69.90
11214;DHT22;5664;48.606;13.456;2023-10-19T07:05:22;18.10;73.10
11214;DHT22;5664;48.606;13.456;2023-10-19T07:07:50;18.20;74.60
11214;DHT22;5664;48.606;13.456;2023-10-19T07:10:20;18.30;74.90
11214;DHT22;5664;48.606;13.456;2023-10-19T07:12:46;18.40;74.20
11214;DHT22;5664;48.606;13.456;2023-10-19T07:15:12;18.40;73.20
11214;DHT22;5664;48.606;13.456;2023-10-19T07:17:39;18.80;75.40
11214;DHT22;5664;48.606;13.456;2023-10-19T07:20:05;18.60;76.20
11214;DHT22;5664;48.606;13.456;2023-10-19T07:22:45;18.60;75.70
11214;DHT22;5664;48.606;13.456;2023-10-19T07:25:11;18.70;75.80
11214;DHT22;5664;48.606;13.456;2023-10-19T07:27:36;18.80;75.10
11214;DHT22;5664;48.606;13.456;2023-10-19T07:30:02;18.90;73.70
11214;DHT22;5664;48.606;13.456;2023-10-19T07:32:31;18.90;73.90
11214;DHT22;5664;48.606;13.456;2023-10-19T07:34:58;19.00;73.90
11214;DHT22;5664;48.606;13.456;2023-10-19T07:37:24;19.10;74.00
11214;DHT22;5664;48.606;13.456;2023-10-19T07:39:50;19.10;74.10
11214;DHT22;5664;48.606;13.456;2023-10-19T07:42:21;19.20;74.10
11214;DHT22;5664;48.606;13.456;2023-10-19T07:44:46;19.20;74.30
11214;DHT22;5664;48.606;13.456;2023-10-19T07:47:12;19.30;74.30
11214;DHT22;5664;48.606;13.456;2023-10-19T07:49:37;19.30;74.30
11214;DHT22;5664;48.606;13.456;2023-10-19T07:52:06;19.40;74.30
11214;DHT22;5664;48.606;13.456;2023-10-19T07:54:35;19.40;74.20
11214;DHT22;5664;48.606;13.456;2023-10-19T07:57:04;19.50;74.30
11214;DHT22;5664;48.606;13.456;2023-10-19T07:59:33;19.50;74.10
11214;DHT22;5664;48.606;13.456;2023-10-19T08:01:59;19.60;74.10
11214;DHT22;5664;48.606;13.456;2023-10-19T08:04:28;19.60;74.20
11214;DHT22;5664;48.606;13.456;2023-10-19T08:06:53;19.70;74.30
11214;DHT22;5664;48.606;13.456;2023-10-19T08:09:21;19.70;74.20
11214;DHT22;5664;48.606;13.456;2023-10-19T08:11:48;19.70;74.60
11214;DHT22;5664;48.606;13.456;2023-10-19T08:14:14;19.70;74.10
11214;DHT22;5664;48.606;13.456;2023-10-19T08:16:39;19.70;74.00
11214;DHT22;5664;48.606;13.456;2023-10-19T08:19:07;19.80;74.00
11214;DHT22;5664;48.606;13.456;2023-10-19T08:21:32;19.80;74.00
11214;DHT22;5664;48.606;13.456;2023-10-19T08:23:59;19.80;74.00
11214;DHT22;5664;48.606;13.456;2023-10-19T08:26:32;19.80;73.50
11214;DHT22;5664;48.606;13.456;2023-10-19T08:28:57;19.90;74.10
11214;DHT22;5664;48.606;13.456;2023-10-19T08:31:24;19.90;74.00
11214;DHT22;5664;48.606;13.456;2023-10-19T08:33:49;19.90;74.00
11214;DHT22;5664;48.606;13.456;2023-10-19T08:36:17;20.00;74.80
11214;DHT22;5664;48.606;13.456;2023-10-19T08:38:45;20.00;74.10
11214;DHT22;5664;48.606;13.456;2023-10-19T08:41:14;20.00;74.00
11214;DHT22;5664;48.606;13.456;2023-10-19T08:43:43;20.00;74.00
11214;DHT22;5664;48.606;13.456;2023-10-19T08:46:09;20.10;74.00
11214;DHT22;5664;48.606;13.456;2023-10-19T08:48:35;20.10;74.10
11214;DHT22;5664;48.606;13.456;2023-10-19T08:51:02;20.10;73.90
11214;DHT22;5664;48.606;13.456;2023-10-19T08:53:28;20.20;73.90
11214;DHT22;5664;48.606;13.456;2023-10-19T08:55:54;20.20;73.80
11214;DHT22;5664;48.606;13.456;2023-10-19T08:58:21;20.20;73.70
11214;DHT22;5664;48.606;13.456;2023-10-19T09:00:48;20.30;73.70
11214;DHT22;5664;48.606;13.456;2023-10-19T09:03:14;20.30;73.60
11214;DHT22;5664;48.606;13.456;2023-10-19T09:05:41;20.30;73.60
11214;DHT22;5664;48.606;13.456;2023-10-19T09:08:07;20.30;73.60
11214;DHT22;5664;48.606;13.456;2023-10-19T09:10:35;20.30;73.50
11214;DHT22;5664;48.606;13.456;2023-10-19T09:13:02;20.40;73.60
11214;DHT22;5664;48.606;13.456;2023-10-19T09:15:28;20.40;73.70
11214;DHT22;5664;48.606;13.456;2023-10-19T09:18:20;20.40;73.60
11214;DHT22;5664;48.606;13.456;2023-10-19T09:20:46;20.50;73.60
11214;DHT22;5664;48.606;13.456;2023-10-19T09:23:24;20.50;73.50
11214;DHT22;5664;48.606;13.456;2023-10-19T09:25:55;20.60;73.40
11214;DHT22;5664;48.606;13.456;2023-10-19T09:28:21;20.70;73.30
11214;DHT22;5664;48.606;13.456;2023-10-19T09:30:48;20.80;73.20
11214;DHT22;5664;48.606;13.456;2023-10-19T09:33:14;21.10;73.40
11214;DHT22;5664;48.606;13.456;2023-10-19T09:35:43;21.50;72.50
11214;DHT22;5664;48.606;13.456;2023-10-19T09:38:11;22.10;70.10
11214;DHT22;5664;48.606;13.456;2023-10-19T09:40:37;22.60;68.70
11214;DHT22;5664;48.606;13.456;2023-10-19T09:43:04;23.10;65.70
11214;DHT22;5664;48.606;13.456;2023-10-19T09:45:32;23.30;64.50
11214;DHT22;5664;48.606;13.456;2023-10-19T09:48:00;23.30;65.20
11214;DHT22;5664;48.606;13.456;2023-10-19T09:50:27;23.30;65.40
11214;DHT22;5664;48.606;13.456;2023-10-19T09:52:52;23.10;59.50
11214;DHT22;5664;48.606;13.456;2023-10-19T09:55:34;22.90;59.10
11214;DHT22;5664;48.606;13.456;2023-10-19T09:58:04;22.80;62.70
11214;DHT22;5664;48.606;13.456;2023-10-19T10:00:31;22.80;63.60
11214;DHT22;5664;48.606;13.456;2023-10-19T10:02:57;22.60;63.70
11214;DHT22;5664;48.606;13.456;2023-10-19T10:10:48;22.40;64.40
11214;DHT22;5664;48.606;13.456;2023-10-19T10:15:52;22.40;65.00
11214;DHT22;5664;48.606;13.456;2023-10-19T10:18:18;22.40;65.30
11214;DHT22;5664;48.606;13.456;2023-10-19T10:20:44;22.40;65.40
11214;DHT22;5664;48.606;13.456;2023-10-19T10:23:21;22.40;65.50
11214;DHT22;5664;48.606;13.456;2023-10-19T10:25:57;22.50;65.60
11214;DHT22;5664;48.606;13.456;2023-10-19T10:28:24;22.50;65.60
11214;DHT22;5664;48.606;13.456;2023-10-19T10:36:19;22.60;66.00
11214;DHT22;5664;48.606;13.456;2023-10-19T10:38:50;22.60;66.20
11214;DHT22;5664;48.606;13.456;2023-10-19T10:41:22;22.50;66.00
11214;DHT22;5664;48.606;13.456;2023-10-19T10:43:51;22.60;66.20
11214;DHT22;5664;48.606;13.456;2023-10-19T10:46:20;22.60;66.30
11214;DHT22;5664;48.606;13.456;2023-10-19T10:48:46;22.50;66.20
11214;DHT22;5664;48.606;13.456;2023-10-19T10:51:23;22.50;66.30
11214;DHT22;5664;48.606;13.456;2023-10-19T10:53:50;22.50;66.40
11214;DHT22;5664;48.606;13.456;2023-10-19T10:56:16;22.50;66.40
11214;DHT22;5664;48.606;13.456;2023-10-19T10:58:41;22.50;66.40
11214;DHT22;5664;48.606;13.456;2023-10-19T11:01:07;22.60;66.40
11214;DHT22;5664;48.606;13.456;2023-10-19T11:03:32;22.50;66.40
11214;DHT22;5664;48.606;13.456;2023-10-19T11:06:05;22.60;66.50
11214;DHT22;5664;48.606;13.456;2023-10-19T11:08:33;22.60;66.60
11214;DHT22;5664;48.606;13.456;2023-10-19T11:11:06;22.60;66.70
11214;DHT22;5664;48.606;13.456;2023-10-19T11:13:32;22.60;66.80
11214;DHT22;5664;48.606;13.456;2023-10-19T11:16:02;22.60;66.90
11214;DHT22;5664;48.606;13.456;2023-10-19T11:18:29;22.60;66.80
11214;DHT22;5664;48.606;13.456;2023-10-19T11:20:55;22.60;66.70
11214;DHT22;5664;48.606;13.456;2023-10-19T11:23:33;22.60;66.60
11214;DHT22;5664;48.606;13.456;2023-10-19T11:25:59;22.60;66.50
11214;DHT22;5664;48.606;13.456;2023-10-19T11:28:25;22.60;66.30
11214;DHT22;5664;48.606;13.456;2023-10-19T11:30:53;22.60;66.30
11214;DHT22;5664;48.606;13.456;2023-10-19T11:33:20;22.60;66.00
11214;DHT22;5664;48.606;13.456;2023-10-19T11:35:49;22.50;65.60
11214;DHT22;5664;48.606;13.456;2023-10-19T11:38:15;22.50;65.40
11214;DHT22;5664;48.606;13.456;2023-10-19T11:40:43;22.50;65.50
11214;DHT22;5664;48.606;13.456;2023-10-19T11:43:08;22.50;65.50
11214;DHT22;5664;48.606;13.456;2023-10-19T11:45:34;22.50;65.40
11214;DHT22;5664;48.606;13.456;2023-10-19T11:48:03;22.50;65.50
11214;DHT22;5664;48.606;13.456;2023-10-19T11:50:32;22.40;65.40
11214;DHT22;5664;48.606;13.456;2023-10-19T11:52:58;22.40;65.30
11214;DHT22;5664;48.606;13.456;2023-10-19T11:55:23;22.40;65.10
11214;DHT22;5664;48.606;13.456;2023-10-19T11:57:50;22.40;65.10
11214;DHT22;5664;48.606;13.456;2023-10-19T12:00:15;22.40;65.00
11214;DHT22;5664;48.606;13.456;2023-10-19T12:02:59;22.30;64.90
11214;DHT22;5664;48.606;13.456;2023-10-19T12:05:25;22.30;64.70
11214;DHT22;5664;48.606;13.456;2023-10-19T12:07:50;22.30;64.90
11214;DHT22;5664;48.606;13.456;2023-10-19T12:10:17;22.30;64.80
11214;DHT22;5664;48.606;13.456;2023-10-19T12:12:45;22.30;64.90
11214;DHT22;5664;48.606;13.456;2023-10-19T12:15:11;22.30;65.00
11214;DHT22;5664;48.606;13.456;2023-10-19T12:17:37;22.30;65.20
11214;DHT22;5664;48.606;13.456;2023-10-19T12:20:03;22.30;65.30
11214;DHT22;5664;48.606;13.456;2023-10-19T12:22:32;22.30;65.40
11214;DHT22;5664;48.606;13.456;2023-10-19T12:25:03;22.20;65.40
11214;DHT22;5664;48.606;13.456;2023-10-19T12:27:29;22.30;65.70
11214;DHT22;5664;48.606;13.456;2023-10-19T12:29:55;22.30;65.70
11214;DHT22;5664;48.606;13.456;2023-10-19T12:32:21;22.30;65.90
11214;DHT22;5664;48.606;13.456;2023-10-19T12:34:47;22.20;66.60
11214;DHT22;5664;48.606;13.456;2023-10-19T12:37:15;22.20;65.90
11214;DHT22;5664;48.606;13.456;2023-10-19T12:39:52;22.20;66.10
11214;DHT22;5664;48.606;13.456;2023-10-19T12:42:20;22.20;66.10
11214;DHT22;5664;48.606;13.456;2023-10-19T12:44:48;22.20;66.20
11214;DHT22;5664;48.606;13.456;2023-10-19T12:47:13;22.20;65.40
11214;DHT22;5664;48.606;13.456;2023-10-19T12:49:42;22.10;63.00
11214;DHT22;5664;48.606;13.456;2023-10-19T12:52:10;22.10;62.00
11214;DHT22;5664;48.606;13.456;2023-10-19T12:54:36;22.10;61.10
11214;DHT22;5664;48.606;13.456;2023-10-19T12:57:02;22.10;60.60
11214;DHT22;5664;48.606;13.456;2023-10-19T12:59:35;22.30;62.80
11214;DHT22;5664;48.606;13.456;2023-10-19T13:02:03;22.60;61.40
11214;DHT22;5664;48.606;13.456;2023-10-19T13:04:28;23.00;60.80
11214;DHT22;5664;48.606;13.456;2023-10-19T13:06:56;23.20;59.70
11214;DHT22;5664;48.606;13.456;2023-10-19T13:09:25;23.30;59.20
11214;DHT22;5664;48.606;13.456;2023-10-19T13:11:57;23.40;59.70
11214;DHT22;5664;48.606;13.456;2023-10-19T13:14:22;23.40;58.80
11214;DHT22;5664;48.606;13.456;2023-10-19T13:16:47;23.30;58.00
11214;DHT22;5664;48.606;13.456;2023-10-19T13:19:16;23.30;57.80
11214;DHT22;5664;48.606;13.456;2023-10-19T13:21:47;23.30;58.10
11214;DHT22;5664;48.606;13.456;2023-10-19T13:24:12;23.30;58.60
11214;DHT22;5664;48.606;13.456;2023-10-19T13:26:39;23.20;58.50
11214;DHT22;5664;48.606;13.456;2023-10-19T13:29:07;23.10;58.40
11214;DHT22;5664;48.606;13.456;2023-10-19T13:31:32;23.00;58.50
11214;DHT22;5664;48.606;13.456;2023-10-19T13:34:00;22.90;58.20
11214;DHT22;5664;48.606;13.456;2023-10-19T13:36:25;22.90;58.50
11214;DHT22;5664;48.606;13.456;2023-10-19T13:38:51;22.90;58.40
11214;DHT22;5664;48.606;13.456;2023-10-19T13:41:16;22.90;58.70
11214;DHT22;5664;48.606;13.456;2023-10-19T13:43:42;23.00;58.70
11214;DHT22;5664;48.606;13.456;2023-10-19T13:46:07;23.00;58.90
11214;DHT22;5664;48.606;13.456;2023-10-19T13:48:33;23.00;58.80
11214;DHT22;5664;48.606;13.456;2023-10-19T13:50:58;23.00;59.30
11214;DHT22;5664;48.606;13.456;2023-10-19T13:53:38;22.90;59.30
11214;DHT22;5664;48.606;13.456;2023-10-19T13:56:06;22.90;59.30
11214;DHT22;5664;48.606;13.456;2023-10-19T13:58:32;22.80;59.20
11214;DHT22;5664;48.606;13.456;2023-10-19T14:00:58;22.70;59.30
11214;DHT22;5664;48.606;13.456;2023-10-19T14:03:24;22.70;59.40
11214;DHT22;5664;48.606;13.456;2023-10-19T14:05:49;22.60;59.80
11214;DHT22;5664;48.606;13.456;2023-10-19T14:08:16;22.60;60.00
11214;DHT22;5664;48.606;13.456;2023-10-19T14:10:42;22.50;59.80
11214;DHT22;5664;48.606;13.456;2023-10-19T14:13:08;22.50;60.10
11214;DHT22;5664;48.606;13.456;2023-10-19T14:15:33;22.40;60.40
11214;DHT22;5664;48.606;13.456;2023-10-19T14:17:59;22.40;60.20
11214;DHT22;5664;48.606;13.456;2023-10-19T14:20:25;22.40;59.70
11214;DHT22;5664;48.606;13.456;2023-10-19T14:22:53;22.30;60.80
11214;DHT22;5664;48.606;13.456;2023-10-19T14:25:21;22.30;59.80
11214;DHT22;5664;48.606;13.456;2023-10-19T14:27:51;22.30;59.70
11214;DHT22;5664;48.606;13.456;2023-10-19T14:30:23;22.20;59.60
11214;DHT22;5664;48.606;13.456;2023-10-19T14:32:49;22.20;59.50
11214;DHT22;5664;48.606;13.456;2023-10-19T14:35:16;22.20;59.60
11214;DHT22;5664;48.606;13.456;2023-10-19T14:37:42;22.10;59.60
11214;DHT22;5664;48.606;13.456;2023-10-19T14:40:12;22.10;59.70
11214;DHT22;5664;48.606;13.456;2023-10-19T14:42:40;22.10;60.80
11214;DHT22;5664;48.606;13.456;2023-10-19T14:45:10;22.10;60.00
11214;DHT22;5664;48.606;13.456;2023-10-19T14:47:40;22.10;60.10
11214;DHT22;5664;48.606;13.456;2023-10-19T14:50:12;22.00;60.10
11214;DHT22;5664;48.606;13.456;2023-10-19T14:52:42;22.10;60.20
11214;DHT22;5664;48.606;13.456;2023-10-19T14:55:08;22.10;60.40
11214;DHT22;5664;48.606;13.456;2023-10-19T14:57:35;22.00;60.30
11214;DHT22;5664;48.606;13.456;2023-10-19T15:00:01;22.00;60.20
11214;DHT22;5664;48.606;13.456;2023-10-19T15:02:37;22.00;61.10
11214;DHT22;5664;48.606;13.456;2023-10-19T15:05:04;22.00;60.30
11214;DHT22;5664;48.606;13.456;2023-10-19T15:07:30;21.90;60.30
11214;DHT22;5664;48.606;13.456;2023-10-19T15:09:55;21.90;60.30
11214;DHT22;5664;48.606;13.456;2023-10-19T15:12:21;21.90;60.30
11214;DHT22;5664;48.606;13.456;2023-10-19T15:14:46;21.90;60.40
11214;DHT22;5664;48.606;13.456;2023-10-19T15:17:12;21.80;60.40
11214;DHT22;5664;48.606;13.456;2023-10-19T15:19:37;21.80;60.50
11214;DHT22;5664;48.606;13.456;2023-10-19T15:22:03;21.70;60.40
11214;DHT22;5664;48.606;13.456;2023-10-19T15:24:28;21.70;60.60
11214;DHT22;5664;48.606;13.456;2023-10-19T15:26:54;21.70;60.80
11214;DHT22;5664;48.606;13.456;2023-10-19T15:29:19;21.60;60.90
11214;DHT22;5664;48.606;13.456;2023-10-19T15:31:45;21.60;61.00
11214;DHT22;5664;48.606;13.456;2023-10-19T15:34:10;21.60;61.30
11214;DHT22;5664;48.606;13.456;2023-10-19T15:36:38;21.50;61.50
11214;DHT22;5664;48.606;13.456;2023-10-19T15:39:04;21.50;61.70
11214;DHT22;5664;48.606;13.456;2023-10-19T15:41:29;21.50;62.10
11214;DHT22;5664;48.606;13.456;2023-10-19T15:43:55;21.50;62.30
11214;DHT22;5664;48.606;13.456;2023-10-19T15:46:21;21.40;62.70
11214;DHT22;5664;48.606;13.456;2023-10-19T15:48:48;21.50;63.30